createdAt,value
2019-03-15T00:00:54.070Z,14.13
2019-03-15T00:03:25.180Z,16.23
2019-03-15T00:05:56.194Z,16.77
2019-03-15T00:08:27.211Z,15.83
2019-03-15T00:10:58.247Z,16.80
2019-03-15T00:13:29.347Z,16.20
2019-03-15T00:16:00.468Z,17.07
2019-03-15T00:18:31.542Z,18.73
2019-03-15T00:21:02.716Z,18.80
2019-03-15T00:23:33.712Z,17.00
2019-03-15T00:26:04.813Z,19.80
2019-03-15T00:28:35.902Z,19.75
2019-03-15T00:31:07.008Z,19.35
2019-03-15T00:33:38.265Z,19.70
2019-03-15T00:36:09.794Z,19.90
2019-03-15T00:38:40.799Z,19.98
2019-03-15T00:41:11.762Z,20.10
2019-03-15T00:43:42.767Z,19.70
2019-03-15T00:46:13.878Z,20.37
2019-03-15T00:48:44.958Z,19.98
2019-03-15T00:51:15.955Z,19.67
2019-03-15T00:53:48.190Z,19.55
2019-03-15T00:56:19.277Z,18.10
2019-03-15T00:58:50.468Z,18.25
2019-03-15T01:01:21.583Z,18.45
2019-03-15T01:03:52.828Z,18.30
2019-03-15T01:06:23.875Z,20.92
2019-03-15T01:08:54.952Z,20.97
2019-03-15T01:11:25.929Z,17.92
2019-03-15T01:13:57.032Z,18.98
2019-03-15T01:16:28.118Z,20.00
2019-03-15T01:18:59.206Z,20.57
2019-03-15T01:21:30.207Z,20.95
2019-03-15T01:24:01.366Z,21.15
2019-03-15T01:26:32.398Z,20.80
2019-03-15T01:29:03.646Z,19.20
2019-03-15T01:31:34.639Z,20.32
2019-03-15T01:34:05.773Z,20.80
2019-03-15T01:36:36.874Z,20.75
2019-03-15T01:39:07.936Z,21.50
2019-03-15T01:41:39.061Z,19.95
2019-03-15T01:44:10.141Z,23.18
2019-03-15T01:46:41.239Z,19.75
2019-03-15T01:49:12.328Z,21.95
2019-03-15T01:51:43.394Z,21.57
2019-03-15T01:54:14.512Z,21.93
2019-03-15T01:56:45.615Z,22.93
2019-03-15T01:59:16.630Z,23.07
2019-03-15T02:01:47.795Z,23.50
2019-03-15T02:04:18.820Z,21.87
2019-03-15T02:06:49.966Z,23.05
2019-03-15T02:09:21.276Z,22.70
2019-03-15T02:11:52.437Z,21.37
2019-03-15T02:14:23.667Z,20.80
2019-03-15T02:16:54.652Z,21.35
2019-03-15T02:19:25.752Z,22.77
2019-03-15T02:21:56.760Z,23.47
2019-03-15T02:24:27.940Z,23.42
2019-03-15T02:26:59.035Z,24.55
2019-03-15T02:29:30.121Z,24.67
2019-03-15T02:32:01.233Z,24.47
2019-03-15T02:34:32.301Z,27.45
2019-03-15T02:37:03.487Z,26.65
2019-03-15T02:39:34.559Z,25.80
2019-03-15T02:42:05.592Z,23.50
2019-03-15T02:44:36.664Z,25.20
2019-03-15T02:47:07.821Z,23.05
2019-03-15T02:49:38.918Z,24.02
2019-03-15T02:52:10.028Z,24.70
2019-03-15T02:54:41.109Z,25.08
2019-03-15T02:57:12.186Z,25.90
2019-03-15T02:59:43.296Z,26.90
2019-03-15T03:02:14.383Z,27.73
2019-03-15T03:04:45.529Z,27.85
2019-03-15T03:07:16.732Z,29.63
2019-03-15T03:09:47.869Z,29.70
2019-03-15T03:12:19.061Z,33.70
2019-03-15T03:14:50.250Z,33.92
2019-03-15T03:17:21.388Z,35.15
2019-03-15T03:19:53.364Z,35.08
2019-03-15T03:22:25.278Z,39.40
2019-03-15T03:24:56.359Z,38.33
2019-03-15T03:27:27.456Z,35.35
2019-03-15T03:29:58.572Z,34.15
2019-03-15T03:32:29.601Z,34.92
2019-03-15T03:35:00.708Z,34.58
2019-03-15T03:37:32.577Z,36.53
2019-03-15T03:40:04.319Z,29.85
2019-03-15T03:42:35.340Z,33.18
2019-03-15T03:45:08.183Z,30.45
2019-03-15T03:47:39.172Z,24.87
2019-03-15T03:50:11.411Z,29.60
2019-03-15T03:52:42.489Z,31.23
2019-03-15T03:55:13.650Z,29.02
2019-03-15T03:57:44.724Z,25.72
2019-03-15T04:00:15.835Z,23.65
2019-03-15T04:02:46.929Z,23.98
2019-03-15T04:05:17.948Z,23.12
2019-03-15T04:07:49.187Z,21.50
2019-03-15T04:10:20.235Z,21.77
2019-03-15T04:12:51.304Z,17.52
2019-03-15T04:15:22.332Z,20.23
2019-03-15T04:17:53.364Z,21.17
2019-03-15T04:20:24.348Z,21.10
2019-03-15T04:22:55.671Z,21.65
2019-03-15T04:25:26.606Z,21.20
2019-03-15T04:27:57.579Z,21.93
2019-03-15T04:30:28.550Z,21.00
2019-03-15T04:32:59.682Z,21.50
2019-03-15T04:35:30.724Z,21.97
2019-03-15T04:38:01.797Z,21.90
2019-03-15T04:40:32.858Z,22.10
2019-03-15T04:43:04.194Z,22.50
2019-03-15T04:45:35.340Z,21.55
2019-03-15T04:48:06.555Z,21.77
2019-03-15T04:50:37.721Z,21.80
2019-03-15T04:53:08.765Z,18.73
2019-03-15T04:55:39.877Z,17.32
2019-03-15T04:58:10.957Z,17.10
2019-03-15T05:00:41.990Z,16.95
2019-03-15T05:03:12.989Z,18.37
2019-03-15T05:05:43.986Z,18.32
2019-03-15T05:08:15.297Z,19.75
2019-03-15T05:10:46.267Z,19.57
2019-03-15T05:13:17.250Z,21.48
2019-03-15T05:15:48.343Z,21.27
2019-03-15T05:18:19.358Z,19.02
2019-03-15T05:20:50.453Z,24.77
2019-03-15T05:23:21.527Z,20.68
2019-03-15T05:25:52.621Z,21.75
2019-03-15T05:28:23.650Z,23.30
2019-03-15T05:30:54.711Z,24.60
2019-03-15T05:33:26.876Z,21.35
2019-03-15T05:35:57.837Z,23.20
2019-03-15T05:38:28.917Z,21.45
2019-03-15T05:41:00.014Z,16.32
2019-03-15T05:43:31.911Z,15.50
2019-03-15T05:46:03.080Z,14.70
2019-03-15T05:48:34.141Z,14.07
2019-03-15T05:51:06.364Z,15.10
2019-03-15T05:53:37.454Z,13.32
2019-03-15T05:56:08.498Z,15.38
2019-03-15T05:58:39.615Z,12.58
2019-03-15T06:01:10.685Z,12.85
2019-03-15T06:03:48.642Z,13.65
2019-03-15T06:06:14.356Z,16.23
2019-03-15T06:08:45.438Z,16.20
2019-03-15T06:11:16.541Z,16.85
2019-03-15T06:13:47.626Z,15.80
2019-03-15T06:16:18.780Z,17.85
2019-03-15T06:18:49.823Z,20.23
2019-03-15T06:21:20.968Z,20.17
2019-03-15T06:23:52.062Z,18.87
2019-03-15T06:26:23.045Z,15.05
2019-03-15T06:28:54.228Z,14.80
2019-03-15T06:31:25.272Z,17.27
2019-03-15T06:33:57.509Z,18.82
2019-03-15T06:36:28.583Z,17.45
2019-03-15T06:38:59.830Z,13.05
2019-03-15T06:41:30.944Z,17.27
2019-03-15T06:44:02.020Z,12.10
2019-03-15T06:46:33.146Z,17.85
2019-03-15T06:49:04.292Z,20.15
2019-03-15T06:51:35.401Z,13.70
2019-03-15T06:54:11.479Z,13.03
2019-03-15T06:56:40.417Z,13.67
2019-03-15T06:59:11.899Z,11.55
2019-03-15T07:01:42.957Z,10.18
2019-03-15T07:04:14.144Z,9.75
2019-03-15T07:06:45.151Z,10.03
2019-03-15T07:09:16.320Z,11.12
2019-03-15T07:11:47.313Z,10.25
2019-03-15T07:14:18.426Z,13.48
2019-03-15T07:16:49.620Z,10.00
2019-03-15T07:19:27.399Z,11.20
2019-03-15T07:21:53.528Z,10.08
2019-03-15T07:24:25.737Z,9.88
2019-03-15T07:26:56.712Z,12.98
2019-03-15T07:29:27.794Z,12.00
2019-03-15T07:31:58.832Z,12.90
2019-03-15T07:34:29.796Z,12.40
2019-03-15T07:37:00.899Z,12.10
2019-03-15T07:39:31.870Z,9.98
2019-03-15T07:42:02.791Z,9.48
2019-03-15T07:44:33.787Z,9.98
2019-03-15T07:47:04.776Z,11.53
2019-03-15T07:49:35.924Z,10.95
2019-03-15T07:52:08.565Z,12.33
2019-03-15T07:54:39.684Z,12.20
2019-03-15T07:57:10.774Z,11.60
2019-03-15T07:59:41.832Z,11.18
2019-03-15T08:02:13.031Z,17.85
2019-03-15T08:04:44.115Z,13.43
2019-03-15T08:07:19.674Z,11.25
2019-03-15T08:09:50.980Z,9.98
2019-03-15T08:12:20.721Z,9.68
2019-03-15T08:14:51.696Z,10.15
2019-03-15T08:17:23.376Z,10.43
2019-03-15T08:19:54.488Z,11.55
2019-03-15T08:22:25.486Z,11.10
2019-03-15T08:24:56.674Z,11.50
2019-03-15T08:27:27.852Z,11.95
2019-03-15T08:29:59.065Z,10.82
2019-03-15T08:32:30.106Z,12.28
2019-03-15T08:35:03.962Z,13.20
2019-03-15T08:37:33.992Z,12.63
2019-03-15T08:40:08.121Z,14.23
2019-03-15T08:42:39.139Z,12.58
2019-03-15T08:45:12.969Z,12.47
2019-03-15T08:47:44.110Z,14.18
2019-03-15T08:50:17.392Z,13.98
2019-03-15T08:52:49.566Z,12.47
2019-03-15T08:55:20.673Z,17.95
2019-03-15T08:57:51.773Z,15.32
2019-03-15T09:00:22.902Z,13.22
2019-03-15T09:02:54.145Z,14.47
2019-03-15T09:05:25.192Z,13.72
2019-03-15T09:07:56.345Z,13.75
2019-03-15T09:10:27.373Z,13.60
2019-03-15T09:12:58.405Z,13.32
2019-03-15T09:15:30.927Z,16.80
2019-03-15T09:18:02.139Z,12.93
2019-03-15T09:20:33.188Z,12.47
2019-03-15T09:23:04.324Z,15.85
2019-03-15T09:25:35.366Z,14.75
2019-03-15T09:28:06.398Z,12.68
2019-03-15T09:30:37.382Z,13.45
2019-03-15T09:33:08.348Z,14.60
2019-03-15T09:35:39.573Z,14.00
2019-03-15T09:38:10.808Z,14.25
2019-03-15T09:40:42.090Z,14.68
2019-03-15T09:43:13.158Z,14.95
2019-03-15T09:45:44.306Z,15.83
2019-03-15T09:48:15.467Z,15.32
2019-03-15T09:50:51.646Z,14.45
2019-03-15T09:53:19.444Z,14.53
2019-03-15T09:55:50.465Z,14.18
2019-03-15T09:58:21.523Z,14.18
2019-03-15T10:00:52.629Z,14.20
2019-03-15T10:03:23.758Z,14.23
2019-03-15T10:05:54.867Z,12.28
2019-03-15T10:08:26.020Z,13.32
2019-03-15T10:10:57.447Z,13.88
2019-03-15T10:13:28.526Z,15.45
2019-03-15T10:15:59.620Z,14.58
2019-03-15T10:18:30.896Z,14.78
2019-03-15T10:21:02.038Z,14.65
2019-03-15T10:23:33.168Z,14.73
2019-03-15T10:26:04.396Z,13.98
2019-03-15T10:28:35.591Z,13.55
2019-03-15T10:31:06.743Z,13.28
2019-03-15T10:33:49.894Z,12.90
2019-03-15T10:36:11.085Z,14.20
2019-03-15T10:38:42.172Z,14.87
2019-03-15T10:41:14.405Z,15.13
2019-03-15T10:43:45.473Z,13.80
2019-03-15T10:46:16.455Z,13.85
2019-03-15T10:48:47.643Z,14.10
2019-03-15T10:51:18.860Z,14.05
2019-03-15T10:53:49.991Z,14.63
2019-03-15T10:56:21.015Z,14.05
2019-03-15T10:58:52.188Z,14.35
2019-03-15T11:01:23.336Z,14.65
2019-03-15T11:03:54.357Z,14.65
2019-03-15T11:06:25.441Z,14.00
2019-03-15T11:08:56.607Z,13.88
2019-03-15T11:11:27.713Z,14.20
2019-03-15T11:13:58.790Z,13.95
2019-03-15T11:16:29.797Z,14.28
2019-03-15T11:19:01.044Z,15.20
2019-03-15T11:21:32.065Z,14.50
2019-03-15T11:24:03.198Z,14.15
2019-03-15T11:26:34.231Z,15.00
2019-03-15T11:29:05.417Z,14.87
2019-03-15T11:31:36.620Z,17.65
2019-03-15T11:34:07.794Z,14.13
2019-03-15T11:36:38.834Z,14.53
2019-03-15T11:39:09.980Z,15.88
2019-03-15T11:41:41.123Z,16.42
2019-03-15T11:44:12.299Z,17.35
2019-03-15T11:46:43.665Z,15.85
2019-03-15T11:49:15.019Z,15.48
2019-03-15T11:51:46.209Z,17.87
2019-03-15T11:54:17.267Z,18.27
2019-03-15T11:56:50.814Z,18.00
2019-03-15T11:59:21.088Z,15.23
2019-03-15T12:02:03.537Z,17.17
2019-03-15T12:04:24.974Z,16.27
2019-03-15T12:06:56.156Z,16.30
2019-03-15T12:09:27.223Z,18.70
2019-03-15T12:11:58.407Z,21.12
2019-03-15T12:14:40.490Z,15.10
2019-03-15T12:17:02.368Z,16.40
2019-03-15T12:19:33.557Z,15.00
2019-03-15T12:22:06.775Z,17.82
2019-03-15T12:24:38.194Z,17.55
2019-03-15T12:27:09.294Z,14.00
2019-03-15T12:29:41.030Z,16.65
2019-03-15T12:32:12.199Z,16.85
2019-03-15T12:34:43.288Z,15.90
2019-03-15T12:37:14.277Z,18.92
2019-03-15T12:39:45.432Z,15.25
2019-03-15T12:42:16.576Z,15.35
2019-03-15T12:44:47.653Z,14.53
2019-03-15T12:47:18.821Z,13.75
2019-03-15T12:49:50.012Z,13.62
2019-03-15T12:52:21.140Z,13.30
2019-03-15T12:54:52.233Z,14.55
2019-03-15T12:57:23.227Z,16.85
2019-03-15T12:59:54.311Z,14.93
2019-03-15T13:02:25.418Z,16.70
2019-03-15T13:04:56.490Z,15.90
2019-03-15T13:07:27.664Z,15.63
2019-03-15T13:09:58.888Z,17.80
2019-03-15T13:12:30.000Z,19.75
2019-03-15T13:15:01.184Z,13.30
2019-03-15T13:17:32.271Z,15.90
2019-03-15T13:20:03.879Z,17.30
2019-03-15T13:22:34.988Z,15.98
2019-03-15T13:25:08.516Z,16.60
2019-03-15T13:27:40.461Z,14.33
2019-03-15T13:30:16.805Z,17.40
2019-03-15T13:32:47.877Z,21.12
2019-03-15T13:35:19.033Z,22.35
2019-03-15T13:37:50.128Z,23.52
2019-03-15T13:40:21.288Z,19.80
2019-03-15T13:42:52.414Z,20.80
2019-03-15T13:45:23.532Z,28.00
2019-03-15T13:47:54.495Z,20.97
2019-03-15T13:50:25.776Z,20.08
2019-03-15T13:52:56.962Z,19.40
2019-03-15T13:55:28.082Z,20.00
2019-03-15T13:57:59.250Z,22.00
2019-03-15T14:00:30.434Z,20.82
2019-03-15T14:03:01.494Z,21.42
2019-03-15T14:05:32.591Z,25.45
2019-03-15T14:08:11.807Z,24.20
2019-03-15T14:10:48.561Z,32.60
2019-03-15T14:13:11.787Z,26.47
2019-03-15T14:15:41.951Z,21.90
2019-03-15T14:18:12.948Z,25.48
2019-03-15T14:20:44.010Z,26.17
2019-03-15T14:23:15.047Z,29.35
2019-03-15T14:25:46.070Z,22.52
2019-03-15T14:28:17.276Z,25.72
2019-03-15T14:30:48.363Z,28.80
2019-03-15T14:33:19.405Z,25.12
2019-03-15T14:35:50.535Z,24.52
2019-03-15T14:38:21.755Z,25.17
2019-03-15T14:40:52.873Z,22.93
2019-03-15T14:43:24.069Z,25.17
2019-03-15T14:45:55.222Z,23.40
2019-03-15T14:48:26.468Z,24.67
2019-03-15T14:50:57.452Z,24.70
2019-03-15T14:53:28.540Z,24.90
2019-03-15T14:56:00.718Z,23.30
2019-03-15T14:58:31.751Z,24.23
2019-03-15T15:01:02.747Z,22.67
2019-03-15T15:03:33.866Z,24.92
2019-03-15T15:06:04.893Z,22.07
2019-03-15T15:08:35.999Z,22.85
2019-03-15T15:11:07.211Z,21.65
2019-03-15T15:13:38.318Z,22.93
2019-03-15T15:16:09.364Z,22.75
2019-03-15T15:18:40.594Z,23.42
2019-03-15T15:21:11.652Z,26.82
2019-03-15T15:23:42.709Z,23.60
2019-03-15T15:26:13.720Z,23.00
2019-03-15T15:28:44.763Z,24.25
2019-03-15T15:31:15.919Z,24.80
2019-03-15T15:33:47.057Z,22.65
2019-03-15T15:36:18.152Z,22.65
2019-03-15T15:38:49.252Z,23.22
2019-03-15T15:41:20.615Z,23.85
2019-03-15T15:43:51.817Z,24.32
2019-03-15T15:46:23.023Z,25.62
2019-03-15T15:48:54.194Z,24.55
2019-03-15T15:51:25.314Z,26.05
2019-03-15T15:53:56.357Z,26.50
2019-03-15T15:56:27.493Z,27.02
2019-03-15T15:58:58.597Z,25.65
2019-03-15T16:01:29.747Z,24.77
2019-03-15T16:04:00.787Z,25.85
2019-03-15T16:06:31.896Z,28.35
2019-03-15T16:09:03.295Z,27.27
2019-03-15T16:11:34.389Z,27.70
2019-03-15T16:14:05.562Z,26.90
2019-03-15T16:16:36.601Z,29.65
2019-03-15T16:19:07.632Z,27.07
2019-03-15T16:21:38.696Z,28.40
2019-03-15T16:24:09.734Z,29.48
2019-03-15T16:26:40.862Z,40.70
2019-03-15T16:29:11.841Z,31.70
2019-03-15T16:31:42.964Z,37.13
2019-03-15T16:34:13.999Z,31.65
2019-03-15T16:36:45.108Z,31.30
2019-03-15T16:39:16.281Z,30.40
2019-03-15T16:41:47.556Z,32.63
2019-03-15T16:44:18.565Z,31.85
2019-03-15T16:46:49.758Z,30.72
2019-03-15T16:49:20.741Z,32.38
2019-03-15T16:51:51.858Z,31.33
2019-03-15T16:54:22.939Z,31.73
2019-03-15T16:56:54.114Z,33.70
2019-03-15T16:59:25.135Z,33.15
2019-03-15T17:01:56.168Z,31.52
2019-03-15T17:04:27.198Z,31.97
2019-03-15T17:07:00.788Z,35.38
2019-03-15T17:09:31.048Z,31.73
2019-03-15T17:12:02.089Z,34.03
2019-03-15T17:14:33.373Z,32.25
2019-03-15T17:17:04.469Z,35.45
2019-03-15T17:19:35.605Z,33.73
2019-03-15T17:22:06.661Z,35.92
2019-03-15T17:24:37.734Z,36.88
2019-03-15T17:27:08.843Z,38.73
2019-03-15T17:29:39.971Z,38.53
2019-03-15T17:32:11.055Z,39.03
2019-03-15T17:34:42.129Z,39.53
2019-03-15T17:37:13.635Z,38.90
2019-03-15T17:39:44.889Z,39.25
2019-03-15T17:42:15.917Z,38.92
2019-03-15T17:44:47.297Z,38.53
2019-03-15T17:47:19.370Z,41.33
2019-03-15T17:49:50.559Z,40.33
2019-03-15T17:52:22.099Z,40.45
2019-03-15T17:54:53.170Z,40.20
2019-03-15T17:57:24.154Z,39.50
2019-03-15T18:00:44.167Z,39.23
2019-03-15T18:03:21.251Z,40.25
2019-03-15T18:05:48.325Z,41.73
2019-03-15T18:08:19.406Z,43.35
2019-03-15T18:10:50.503Z,42.43
2019-03-15T18:13:21.596Z,44.30
2019-03-15T18:15:52.692Z,42.05
2019-03-15T18:18:23.763Z,44.93
2019-03-15T18:20:54.923Z,46.00
2019-03-15T18:23:25.914Z,46.80
2019-03-15T18:25:56.974Z,45.58
2019-03-15T18:28:28.074Z,49.15
2019-03-15T18:30:59.521Z,46.73
2019-03-15T18:33:30.794Z,47.90
2019-03-15T18:36:01.970Z,43.35
2019-03-15T18:38:33.044Z,41.77
2019-03-15T18:41:05.018Z,41.35
2019-03-15T18:43:37.238Z,41.70
2019-03-15T18:46:08.351Z,41.28
2019-03-15T18:48:39.649Z,41.37
2019-03-15T18:51:10.828Z,38.98
2019-03-15T18:53:42.428Z,39.90
2019-03-15T18:56:13.482Z,39.20
2019-03-15T18:58:44.887Z,41.68
2019-03-15T19:01:15.945Z,41.37
2019-03-15T19:03:47.105Z,43.30
2019-03-15T19:06:18.244Z,43.00
2019-03-15T19:08:49.567Z,42.80
2019-03-15T19:11:20.710Z,44.03
2019-03-15T19:13:51.737Z,43.58
2019-03-15T19:16:22.839Z,45.30
2019-03-15T19:18:53.964Z,43.73
2019-03-15T19:21:25.191Z,45.73
2019-03-15T19:23:56.353Z,47.50
2019-03-15T19:26:28.983Z,45.63
2019-03-15T19:29:00.264Z,45.10
2019-03-15T19:31:31.379Z,44.08
2019-03-15T19:34:02.450Z,43.35
2019-03-15T19:36:33.644Z,44.53
2019-03-15T19:39:06.127Z,45.35
2019-03-15T19:41:37.419Z,43.87
2019-03-15T19:44:08.535Z,46.13
2019-03-15T19:46:39.702Z,47.20
2019-03-15T19:49:10.872Z,43.92
2019-03-15T19:51:42.071Z,43.95
2019-03-15T19:54:13.134Z,43.38
2019-03-15T19:56:44.233Z,44.18
2019-03-15T19:59:15.347Z,46.18
2019-03-15T20:01:46.489Z,46.77
2019-03-15T20:04:17.561Z,48.35
2019-03-15T20:06:49.971Z,48.48
2019-03-15T20:09:21.126Z,49.05
2019-03-15T20:11:52.278Z,46.55
2019-03-15T20:14:23.579Z,46.08
2019-03-15T20:16:54.683Z,48.83
2019-03-15T20:19:25.711Z,46.37
2019-03-15T20:21:56.864Z,51.50
2019-03-15T20:24:28.071Z,66.90
2019-03-15T20:26:59.508Z,59.18
2019-03-15T20:29:30.747Z,54.88
2019-03-15T20:32:01.837Z,51.53
2019-03-15T20:34:33.017Z,57.25
2019-03-15T20:37:04.241Z,58.75
2019-03-15T20:39:35.426Z,59.10
2019-03-15T20:42:06.488Z,57.38
2019-03-15T20:44:37.607Z,55.20
2019-03-15T20:47:08.777Z,52.00
2019-03-15T20:49:39.900Z,52.48
2019-03-15T20:52:11.079Z,52.13
2019-03-15T20:54:42.259Z,49.50
2019-03-15T20:57:13.284Z,50.85
2019-03-15T20:59:44.383Z,46.40
2019-03-15T21:02:15.433Z,50.03
2019-03-15T21:04:46.461Z,50.15
2019-03-15T21:07:18.050Z,50.12
2019-03-15T21:09:49.225Z,50.08
2019-03-15T21:12:20.260Z,50.70
2019-03-15T21:14:51.443Z,52.08
2019-03-15T21:17:22.619Z,50.92
2019-03-15T21:19:53.680Z,49.15
2019-03-15T21:22:24.834Z,50.05
2019-03-15T21:24:55.911Z,51.88
2019-03-15T21:27:27.135Z,51.90
2019-03-15T21:29:58.302Z,51.30
2019-03-15T21:32:30.441Z,50.08
2019-03-15T21:35:05.838Z,45.23
2019-03-15T21:37:37.939Z,46.63
2019-03-15T21:40:13.938Z,48.48
2019-03-15T21:42:44.930Z,49.65
2019-03-15T21:45:16.124Z,48.30
2019-03-15T21:47:47.226Z,51.88
2019-03-15T21:50:19.913Z,49.90
2019-03-15T21:52:50.960Z,50.60
2019-03-15T21:55:22.104Z,49.18
2019-03-15T21:57:53.243Z,51.25
2019-03-15T22:00:24.381Z,52.08
2019-03-15T22:02:55.528Z,50.85
2019-03-15T22:05:26.716Z,50.25
2019-03-15T22:07:57.860Z,49.45
2019-03-15T22:10:29.102Z,49.10
2019-03-15T22:13:00.208Z,50.45
2019-03-15T22:15:31.353Z,54.30
2019-03-15T22:18:02.481Z,58.63
2019-03-15T22:20:33.784Z,64.85
2019-03-15T22:23:04.773Z,67.78
2019-03-15T22:25:35.798Z,65.97
2019-03-15T22:28:06.971Z,58.80
2019-03-15T22:30:37.966Z,60.43
2019-03-15T22:33:08.947Z,59.23
2019-03-15T22:35:39.990Z,55.95
2019-03-15T22:38:11.136Z,56.28
2019-03-15T22:40:42.270Z,55.50
2019-03-15T22:43:13.629Z,55.52
2019-03-15T22:45:44.776Z,56.50
2019-03-15T22:48:15.819Z,53.20
2019-03-15T22:50:46.958Z,55.40
2019-03-15T22:53:20.878Z,54.77
2019-03-15T22:55:51.898Z,52.67
2019-03-15T22:58:22.937Z,55.52
2019-03-15T23:00:54.175Z,54.40
2019-03-15T23:03:25.389Z,53.68
2019-03-15T23:05:56.363Z,52.53
2019-03-15T23:08:27.535Z,54.03
2019-03-15T23:10:58.674Z,56.37
2019-03-15T23:13:29.709Z,55.95
2019-03-15T23:16:00.936Z,52.33
2019-03-15T23:18:32.536Z,50.73
2019-03-15T23:21:04.515Z,55.75
2019-03-15T23:23:35.501Z,54.05
2019-03-15T23:26:06.585Z,52.75
2019-03-15T23:28:38.725Z,63.20
2019-03-15T23:31:09.871Z,78.42
2019-03-15T23:33:41.073Z,80.75
2019-03-15T23:36:12.078Z,86.65
2019-03-15T23:38:43.183Z,82.22
2019-03-15T23:41:14.256Z,87.55
2019-03-15T23:43:45.386Z,95.95
2019-03-15T23:46:16.527Z,81.57
2019-03-15T23:48:47.841Z,75.03
2019-03-15T23:51:18.916Z,91.42
2019-03-15T23:53:50.018Z,78.47
2019-03-15T23:56:21.239Z,93.42
2019-03-15T23:58:52.345Z,97.00
